Kenosha, WI (53140)

3:46 AM CST on February 25, 2017 (GMT -0600)
Allendale | | Change Station
Active Advisory: Winter Weather Advisory

Elev 595 ft 42.57 °N, 87.81 °W | Updated 32 seconds ago

Overcast
Overcast
24.6 °F
Feels Like 12 °F
N
16.1
Wind Variable Wind from West

Today
High -- | Low -- °F
--% Chance of Precip.
Yesterday
High -- | Low -- °F
Precip. -- in
Pressure 29.61 in
Visibility 8.0 miles
Clouds Few 1700 ft
Mostly Cloudy 4300 ft
Overcast 12000 ft
Windchill 12 °F
Dew Point 21 °F
Humidity 85%
Rainfall 0.00 in
Snow Depth Not available.
6:32 AM 5:36 PM
Waning Crescent, 2% visible
SPECI KENW 250938Z AUTO 30011KT 8SM FEW017 BKN043 OVC120 M04/M08 A2961 RMK AO2 SNE29 P0000 T10441078 $
Pressure 29.61 in
Visibility 8.0 miles
Clouds Few 1700 ft
Mostly Cloudy 4300 ft
Overcast 12000 ft
Windchill 12 °F
Dew Point 21 °F
Humidity 85%
Rainfall 0.00 in
Snow Depth Not available.
6:32 AM 5:36 PM
Waning Crescent, 2% visible
SPECI KENW 250938Z AUTO 30011KT 8SM FEW017 BKN043 OVC120 M04/M08 A2961 RMK AO2 SNE29 P0000 T10441078 $

Get Your Daily Forecast Email!

Thanks for signing up!

Be on the lookout for a verification email in your inbox.

You'll start receiving the daily forecast at 8 AM.

×

10-Day Weather Forecast

Almanac

Astronomy

Feb. 25, 2017 Rise Set
Actual Time
Civil Twilight
Nautical Twilight
Astronomical Twilight
Moon
Length of Visible Light
Length of Day
Tomorrow will be .
, % of the Moon is Illuminated

Today's Extremes

State Highs State Lows

Community

WunderPhotos

Upload Photos

1,962,540 photos uploaded!

WunderBlog® & News

Nearby

Air Quality

  Air Quality AQ Index Pollutant
Not available.

Snow Depth

Station Depth Elevation

Earthquake Activity

City Distance Mag. Time & Date
Minimum magnitude displayed is 2.5.

Coastal Water Temperatures

Place Temperature

Stations

Nearby Weather Stations

Station Location Temp. Windchill Dew Point Humidity Wind Precip. Elev Updated Type
                   

Watches & Warnings

Winter Weather Advisory
Issued: 3:20 AM CST Feb. 25, 2017 – National Weather Service

... Winter Weather Advisory remains in effect until 6 am CST early
this morning...

A Winter Weather Advisory remains in effect until 6 am CST early
this morning.

* Weather... the snow will diminish and end from west to east this
morning across southern Wisconsin.

* Snow and ice accumulations... additional snow accumulations less
than an inch.

* Wind/visibility... northwest winds 15 to 25 mph. Visibilities 1
to 2 miles... gradually improving.

* Impacts... roads remain hazardous due to the wintry mix last
evening and the light snow accumulations this morning.

Precautionary/preparedness actions...

A Winter Weather Advisory means that periods of snow... sleet or
freezing rain will cause travel difficulties. Be prepared for
slippery roads and limited visibilities... and use caution while
driving. The latest Road conditions for Wisconsin can be obtained
by calling 5 1 1 or by visiting www.511wi.Gov.